sensor_id;sensor_type;location;lat;lon;timestamp;P1;durP1;ratioP1;P2;durP2;ratioP2
20495;SDS011;10406;54.132;17.968;2022-08-19T00:01:28;21.25;;;10.07;;
20495;SDS011;10406;54.132;17.968;2022-08-19T00:06:49;17.15;;;9.07;;
20495;SDS011;10406;54.132;17.968;2022-08-19T00:12:10;19.75;;;9.48;;
20495;SDS011;10406;54.132;17.968;2022-08-19T00:17:33;30.05;;;10.07;;
20495;SDS011;10406;54.132;17.968;2022-08-19T00:22:54;20.90;;;9.63;;
20495;SDS011;10406;54.132;17.968;2022-08-19T00:28:15;19.92;;;9.63;;
20495;SDS011;10406;54.132;17.968;2022-08-19T00:33:37;23.05;;;10.38;;
20495;SDS011;10406;54.132;17.968;2022-08-19T00:38:59;24.33;;;10.45;;
20495;SDS011;10406;54.132;17.968;2022-08-19T00:44:21;21.38;;;11.27;;
20495;SDS011;10406;54.132;17.968;2022-08-19T00:49:47;17.35;;;8.82;;
20495;SDS011;10406;54.132;17.968;2022-08-19T00:55:12;25.48;;;10.48;;
20495;SDS011;10406;54.132;17.968;2022-08-19T01:00:36;19.88;;;10.00;;
20495;SDS011;10406;54.132;17.968;2022-08-19T01:05:59;30.40;;;10.63;;
20495;SDS011;10406;54.132;17.968;2022-08-19T01:11:20;19.95;;;9.98;;
20495;SDS011;10406;54.132;17.968;2022-08-19T01:16:41;24.33;;;10.68;;
20495;SDS011;10406;54.132;17.968;2022-08-19T01:22:06;21.05;;;9.60;;
20495;SDS011;10406;54.132;17.968;2022-08-19T01:27:37;24.38;;;10.82;;
20495;SDS011;10406;54.132;17.968;2022-08-19T01:33:00;26.10;;;10.90;;
20495;SDS011;10406;54.132;17.968;2022-08-19T01:38:25;18.70;;;9.95;;
20495;SDS011;10406;54.132;17.968;2022-08-19T01:43:52;18.00;;;9.80;;
20495;SDS011;10406;54.132;17.968;2022-08-19T01:49:14;27.63;;;10.95;;
20495;SDS011;10406;54.132;17.968;2022-08-19T01:54:36;20.15;;;10.57;;
20495;SDS011;10406;54.132;17.968;2022-08-19T01:59:58;19.00;;;10.55;;
20495;SDS011;10406;54.132;17.968;2022-08-19T02:05:23;24.95;;;10.95;;
20495;SDS011;10406;54.132;17.968;2022-08-19T02:10:45;20.40;;;10.38;;
20495;SDS011;10406;54.132;17.968;2022-08-19T02:16:08;24.08;;;11.13;;
20495;SDS011;10406;54.132;17.968;2022-08-19T02:21:28;30.30;;;11.27;;
20495;SDS011;10406;54.132;17.968;2022-08-19T02:26:50;23.92;;;10.60;;
20495;SDS011;10406;54.132;17.968;2022-08-19T02:32:13;24.20;;;12.25;;
20495;SDS011;10406;54.132;17.968;2022-08-19T02:37:34;18.42;;;11.02;;
20495;SDS011;10406;54.132;17.968;2022-08-19T02:43:12;24.42;;;11.88;;
20495;SDS011;10406;54.132;17.968;2022-08-19T02:48:35;17.50;;;9.43;;
20495;SDS011;10406;54.132;17.968;2022-08-19T02:53:57;22.42;;;10.75;;
20495;SDS011;10406;54.132;17.968;2022-08-19T02:59:18;21.80;;;11.13;;
20495;SDS011;10406;54.132;17.968;2022-08-19T03:04:41;22.25;;;10.93;;
20495;SDS011;10406;54.132;17.968;2022-08-19T03:10:02;23.60;;;12.43;;
20495;SDS011;10406;54.132;17.968;2022-08-19T03:15:24;25.90;;;12.05;;
20495;SDS011;10406;54.132;17.968;2022-08-19T03:20:48;23.55;;;11.73;;
20495;SDS011;10406;54.132;17.968;2022-08-19T03:26:11;23.23;;;12.57;;
20495;SDS011;10406;54.132;17.968;2022-08-19T03:31:33;23.27;;;12.23;;
20495;SDS011;10406;54.132;17.968;2022-08-19T03:36:58;23.42;;;12.00;;
20495;SDS011;10406;54.132;17.968;2022-08-19T03:42:23;23.42;;;12.85;;
20495;SDS011;10406;54.132;17.968;2022-08-19T03:47:45;22.20;;;12.55;;
20495;SDS011;10406;54.132;17.968;2022-08-19T03:53:08;27.40;;;12.88;;
20495;SDS011;10406;54.132;17.968;2022-08-19T03:58:29;32.67;;;12.88;;
20495;SDS011;10406;54.132;17.968;2022-08-19T04:03:50;24.10;;;12.38;;
20495;SDS011;10406;54.132;17.968;2022-08-19T04:09:15;24.95;;;12.32;;
20495;SDS011;10406;54.132;17.968;2022-08-19T04:14:36;21.35;;;11.40;;
20495;SDS011;10406;54.132;17.968;2022-08-19T04:20:03;21.88;;;11.70;;
20495;SDS011;10406;54.132;17.968;2022-08-19T04:25:26;23.58;;;12.90;;
20495;SDS011;10406;54.132;17.968;2022-08-19T04:30:51;23.33;;;11.32;;
20495;SDS011;10406;54.132;17.968;2022-08-19T04:36:15;24.95;;;11.85;;
20495;SDS011;10406;54.132;17.968;2022-08-19T04:41:40;23.42;;;11.90;;
20495;SDS011;10406;54.132;17.968;2022-08-19T04:47:19;26.52;;;12.32;;
20495;SDS011;10406;54.132;17.968;2022-08-19T04:52:40;23.70;;;11.35;;
20495;SDS011;10406;54.132;17.968;2022-08-19T04:58:05;24.52;;;12.10;;
20495;SDS011;10406;54.132;17.968;2022-08-19T05:03:25;20.95;;;11.48;;
20495;SDS011;10406;54.132;17.968;2022-08-19T05:08:52;23.73;;;11.35;;
20495;SDS011;10406;54.132;17.968;2022-08-19T05:14:15;23.92;;;12.05;;
20495;SDS011;10406;54.132;17.968;2022-08-19T05:19:36;27.25;;;11.73;;
20495;SDS011;10406;54.132;17.968;2022-08-19T05:25:17;21.98;;;11.88;;
20495;SDS011;10406;54.132;17.968;2022-08-19T05:30:41;22.50;;;12.18;;
20495;SDS011;10406;54.132;17.968;2022-08-19T05:36:03;25.67;;;12.30;;
20495;SDS011;10406;54.132;17.968;2022-08-19T05:41:26;21.15;;;11.77;;
20495;SDS011;10406;54.132;17.968;2022-08-19T05:46:51;29.63;;;13.25;;
20495;SDS011;10406;54.132;17.968;2022-08-19T05:52:13;22.27;;;11.93;;
20495;SDS011;10406;54.132;17.968;2022-08-19T05:57:36;23.77;;;11.73;;
20495;SDS011;10406;54.132;17.968;2022-08-19T06:02:58;26.15;;;12.07;;
20495;SDS011;10406;54.132;17.968;2022-08-19T06:08:22;22.33;;;11.32;;
20495;SDS011;10406;54.132;17.968;2022-08-19T06:13:43;30.98;;;12.27;;
20495;SDS011;10406;54.132;17.968;2022-08-19T06:19:08;26.85;;;12.55;;
20495;SDS011;10406;54.132;17.968;2022-08-19T06:24:31;22.60;;;11.57;;
20495;SDS011;10406;54.132;17.968;2022-08-19T06:29:52;31.70;;;12.38;;
20495;SDS011;10406;54.132;17.968;2022-08-19T06:35:15;22.38;;;10.63;;
20495;SDS011;10406;54.132;17.968;2022-08-19T06:40:36;29.58;;;10.98;;
20495;SDS011;10406;54.132;17.968;2022-08-19T06:45:57;25.10;;;11.43;;
20495;SDS011;10406;54.132;17.968;2022-08-19T06:51:21;24.77;;;10.52;;
20495;SDS011;10406;54.132;17.968;2022-08-19T06:56:43;24.40;;;10.88;;
20495;SDS011;10406;54.132;17.968;2022-08-19T07:02:05;20.67;;;9.90;;
20495;SDS011;10406;54.132;17.968;2022-08-19T07:07:27;21.00;;;10.95;;
20495;SDS011;10406;54.132;17.968;2022-08-19T07:12:48;16.75;;;8.75;;
20495;SDS011;10406;54.132;17.968;2022-08-19T07:18:09;23.77;;;10.85;;
20495;SDS011;10406;54.132;17.968;2022-08-19T07:23:31;24.33;;;10.27;;
20495;SDS011;10406;54.132;17.968;2022-08-19T07:28:53;19.52;;;10.32;;
20495;SDS011;10406;54.132;17.968;2022-08-19T07:34:15;23.75;;;9.75;;
20495;SDS011;10406;54.132;17.968;2022-08-19T07:39:39;18.73;;;9.20;;
20495;SDS011;10406;54.132;17.968;2022-08-19T07:45:06;19.48;;;8.95;;
20495;SDS011;10406;54.132;17.968;2022-08-19T07:50:29;17.67;;;8.55;;
20495;SDS011;10406;54.132;17.968;2022-08-19T07:55:51;15.25;;;8.43;;
20495;SDS011;10406;54.132;17.968;2022-08-19T08:01:13;25.83;;;9.73;;
20495;SDS011;10406;54.132;17.968;2022-08-19T08:06:34;13.82;;;8.07;;
20495;SDS011;10406;54.132;17.968;2022-08-19T08:12:18;15.90;;;8.73;;
20495;SDS011;10406;54.132;17.968;2022-08-19T08:17:42;20.75;;;8.80;;
20495;SDS011;10406;54.132;17.968;2022-08-19T08:23:03;23.83;;;8.48;;
20495;SDS011;10406;54.132;17.968;2022-08-19T08:28:52;21.25;;;7.85;;
20495;SDS011;10406;54.132;17.968;2022-08-19T08:34:33;18.25;;;7.50;;
20495;SDS011;10406;54.132;17.968;2022-08-19T08:39:55;23.38;;;8.60;;
20495;SDS011;10406;54.132;17.968;2022-08-19T08:45:19;18.77;;;8.20;;
20495;SDS011;10406;54.132;17.968;2022-08-19T08:50:42;15.10;;;7.60;;
20495;SDS011;10406;54.132;17.968;2022-08-19T08:56:08;13.90;;;6.95;;
20495;SDS011;10406;54.132;17.968;2022-08-19T09:01:33;20.23;;;7.15;;
20495;SDS011;10406;54.132;17.968;2022-08-19T09:06:58;16.48;;;7.88;;
20495;SDS011;10406;54.132;17.968;2022-08-19T09:12:38;22.52;;;9.02;;
20495;SDS011;10406;54.132;17.968;2022-08-19T09:18:06;16.25;;;7.72;;
20495;SDS011;10406;54.132;17.968;2022-08-19T09:23:29;12.98;;;6.80;;
20495;SDS011;10406;54.132;17.968;2022-08-19T09:28:50;11.93;;;6.38;;
20495;SDS011;10406;54.132;17.968;2022-08-19T09:34:14;17.75;;;7.00;;
20495;SDS011;10406;54.132;17.968;2022-08-19T09:39:35;15.77;;;7.15;;
20495;SDS011;10406;54.132;17.968;2022-08-19T09:44:58;12.05;;;6.60;;
20495;SDS011;10406;54.132;17.968;2022-08-19T09:50:21;20.15;;;7.65;;
20495;SDS011;10406;54.132;17.968;2022-08-19T09:55:43;15.63;;;6.57;;
20495;SDS011;10406;54.132;17.968;2022-08-19T10:01:05;19.05;;;6.57;;
20495;SDS011;10406;54.132;17.968;2022-08-19T10:06:29;13.77;;;7.15;;
20495;SDS011;10406;54.132;17.968;2022-08-19T10:11:54;14.32;;;6.35;;
20495;SDS011;10406;54.132;17.968;2022-08-19T10:17:20;14.85;;;6.47;;
20495;SDS011;10406;54.132;17.968;2022-08-19T10:22:43;17.65;;;6.43;;
20495;SDS011;10406;54.132;17.968;2022-08-19T10:28:04;22.50;;;7.60;;
20495;SDS011;10406;54.132;17.968;2022-08-19T10:33:26;13.52;;;6.25;;
20495;SDS011;10406;54.132;17.968;2022-08-19T10:38:50;14.35;;;6.82;;
20495;SDS011;10406;54.132;17.968;2022-08-19T10:44:13;20.48;;;7.22;;
20495;SDS011;10406;54.132;17.968;2022-08-19T10:49:35;20.60;;;6.57;;
20495;SDS011;10406;54.132;17.968;2022-08-19T10:55:19;12.98;;;6.40;;
20495;SDS011;10406;54.132;17.968;2022-08-19T11:00:58;19.15;;;6.72;;
20495;SDS011;10406;54.132;17.968;2022-08-19T11:06:19;13.70;;;6.40;;
20495;SDS011;10406;54.132;17.968;2022-08-19T11:11:42;16.20;;;6.57;;
20495;SDS011;10406;54.132;17.968;2022-08-19T11:17:04;15.18;;;6.72;;
20495;SDS011;10406;54.132;17.968;2022-08-19T11:22:25;16.90;;;6.53;;
20495;SDS011;10406;54.132;17.968;2022-08-19T11:27:48;11.27;;;6.13;;
20495;SDS011;10406;54.132;17.968;2022-08-19T11:33:11;18.20;;;7.18;;
20495;SDS011;10406;54.132;17.968;2022-08-19T11:38:32;16.98;;;5.95;;
20495;SDS011;10406;54.132;17.968;2022-08-19T11:43:55;17.58;;;6.40;;
20495;SDS011;10406;54.132;17.968;2022-08-19T11:49:17;19.35;;;6.82;;
20495;SDS011;10406;54.132;17.968;2022-08-19T11:54:40;18.27;;;6.72;;
20495;SDS011;10406;54.132;17.968;2022-08-19T12:00:03;16.00;;;5.88;;
20495;SDS011;10406;54.132;17.968;2022-08-19T12:05:26;13.07;;;5.45;;
20495;SDS011;10406;54.132;17.968;2022-08-19T12:10:47;13.02;;;6.30;;
20495;SDS011;10406;54.132;17.968;2022-08-19T12:16:10;10.30;;;6.03;;
20495;SDS011;10406;54.132;17.968;2022-08-19T12:21:33;16.00;;;6.60;;
20495;SDS011;10406;54.132;17.968;2022-08-19T12:26:55;13.05;;;5.40;;
20495;SDS011;10406;54.132;17.968;2022-08-19T12:32:19;12.75;;;6.20;;
20495;SDS011;10406;54.132;17.968;2022-08-19T12:37:40;11.50;;;6.00;;
20495;SDS011;10406;54.132;17.968;2022-08-19T12:43:03;16.05;;;6.40;;
20495;SDS011;10406;54.132;17.968;2022-08-19T12:48:26;14.38;;;5.93;;
20495;SDS011;10406;54.132;17.968;2022-08-19T12:53:48;10.00;;;5.50;;
20495;SDS011;10406;54.132;17.968;2022-08-19T12:59:11;13.50;;;6.43;;
20495;SDS011;10406;54.132;17.968;2022-08-19T13:04:35;12.30;;;6.00;;
20495;SDS011;10406;54.132;17.968;2022-08-19T13:09:59;14.60;;;5.93;;
20495;SDS011;10406;54.132;17.968;2022-08-19T13:15:22;15.73;;;6.18;;
20495;SDS011;10406;54.132;17.968;2022-08-19T13:20:45;14.13;;;6.22;;
20495;SDS011;10406;54.132;17.968;2022-08-19T13:26:07;18.08;;;6.95;;
20495;SDS011;10406;54.132;17.968;2022-08-19T13:31:30;18.73;;;6.82;;
20495;SDS011;10406;54.132;17.968;2022-08-19T13:37:13;14.73;;;7.68;;
20495;SDS011;10406;54.132;17.968;2022-08-19T13:42:34;22.45;;;8.00;;
20495;SDS011;10406;54.132;17.968;2022-08-19T13:47:58;13.50;;;6.45;;
20495;SDS011;10406;54.132;17.968;2022-08-19T13:53:20;14.05;;;6.40;;
20495;SDS011;10406;54.132;17.968;2022-08-19T13:58:42;15.77;;;6.68;;
20495;SDS011;10406;54.132;17.968;2022-08-19T14:04:08;13.02;;;6.28;;
20495;SDS011;10406;54.132;17.968;2022-08-19T14:09:30;15.52;;;5.93;;
20495;SDS011;10406;54.132;17.968;2022-08-19T14:14:51;20.70;;;7.03;;
20495;SDS011;10406;54.132;17.968;2022-08-19T14:20:15;20.55;;;6.97;;
20495;SDS011;10406;54.132;17.968;2022-08-19T14:25:38;21.58;;;8.32;;
20495;SDS011;10406;54.132;17.968;2022-08-19T14:30:59;17.88;;;7.80;;
20495;SDS011;10406;54.132;17.968;2022-08-19T14:36:20;16.77;;;7.68;;
20495;SDS011;10406;54.132;17.968;2022-08-19T14:41:43;19.23;;;7.70;;
20495;SDS011;10406;54.132;17.968;2022-08-19T14:47:04;14.10;;;7.07;;
20495;SDS011;10406;54.132;17.968;2022-08-19T14:52:26;22.13;;;7.18;;
20495;SDS011;10406;54.132;17.968;2022-08-19T14:57:51;24.45;;;6.75;;
20495;SDS011;10406;54.132;17.968;2022-08-19T15:03:12;14.73;;;7.05;;
20495;SDS011;10406;54.132;17.968;2022-08-19T15:08:36;15.77;;;6.55;;
20495;SDS011;10406;54.132;17.968;2022-08-19T15:14:00;19.00;;;7.63;;
20495;SDS011;10406;54.132;17.968;2022-08-19T15:19:22;11.85;;;6.32;;
20495;SDS011;10406;54.132;17.968;2022-08-19T15:24:43;19.42;;;6.65;;
20495;SDS011;10406;54.132;17.968;2022-08-19T15:30:07;20.77;;;9.43;;
20495;SDS011;10406;54.132;17.968;2022-08-19T15:35:29;20.65;;;7.00;;
20495;SDS011;10406;54.132;17.968;2022-08-19T15:40:50;15.52;;;6.60;;
20495;SDS011;10406;54.132;17.968;2022-08-19T15:46:13;18.92;;;6.72;;
20495;SDS011;10406;54.132;17.968;2022-08-19T15:51:37;15.48;;;7.35;;
20495;SDS011;10406;54.132;17.968;2022-08-19T15:57:01;20.05;;;7.13;;
20495;SDS011;10406;54.132;17.968;2022-08-19T16:02:41;20.60;;;7.72;;
20495;SDS011;10406;54.132;17.968;2022-08-19T16:08:19;16.70;;;6.03;;
20495;SDS011;10406;54.132;17.968;2022-08-19T16:13:40;24.65;;;7.57;;
20495;SDS011;10406;54.132;17.968;2022-08-19T16:19:07;18.40;;;6.53;;
20495;SDS011;10406;54.132;17.968;2022-08-19T16:24:29;15.45;;;6.95;;
20495;SDS011;10406;54.132;17.968;2022-08-19T16:29:51;17.42;;;6.00;;
20495;SDS011;10406;54.132;17.968;2022-08-19T16:35:14;21.73;;;6.80;;
20495;SDS011;10406;54.132;17.968;2022-08-19T16:40:34;21.52;;;7.55;;
20495;SDS011;10406;54.132;17.968;2022-08-19T16:45:56;21.77;;;7.95;;
20495;SDS011;10406;54.132;17.968;2022-08-19T16:51:18;26.77;;;8.05;;
20495;SDS011;10406;54.132;17.968;2022-08-19T16:56:40;21.80;;;7.90;;
20495;SDS011;10406;54.132;17.968;2022-08-19T17:02:01;25.92;;;8.40;;
20495;SDS011;10406;54.132;17.968;2022-08-19T17:07:25;27.55;;;8.32;;
20495;SDS011;10406;54.132;17.968;2022-08-19T17:12:46;19.00;;;8.30;;
20495;SDS011;10406;54.132;17.968;2022-08-19T17:18:09;17.90;;;7.85;;
20495;SDS011;10406;54.132;17.968;2022-08-19T17:23:33;18.35;;;7.82;;
20495;SDS011;10406;54.132;17.968;2022-08-19T17:29:01;19.10;;;7.97;;
20495;SDS011;10406;54.132;17.968;2022-08-19T17:46:28;22.55;;;8.73;;
20495;SDS011;10406;54.132;17.968;2022-08-19T17:52:11;23.75;;;8.95;;
20495;SDS011;10406;54.132;17.968;2022-08-19T17:57:59;26.05;;;9.73;;
20495;SDS011;10406;54.132;17.968;2022-08-19T18:03:24;25.30;;;8.85;;
20495;SDS011;10406;54.132;17.968;2022-08-19T18:08:48;23.17;;;8.38;;
20495;SDS011;10406;54.132;17.968;2022-08-19T18:14:23;21.70;;;8.43;;
20495;SDS011;10406;54.132;17.968;2022-08-19T18:19:54;17.45;;;8.18;;
20495;SDS011;10406;54.132;17.968;2022-08-19T18:25:20;21.65;;;8.38;;
20495;SDS011;10406;54.132;17.968;2022-08-19T18:30:45;27.42;;;11.15;;
20495;SDS011;10406;54.132;17.968;2022-08-19T18:36:09;22.38;;;8.35;;
20495;SDS011;10406;54.132;17.968;2022-08-19T18:41:31;21.73;;;8.30;;
20495;SDS011;10406;54.132;17.968;2022-08-19T18:47:11;25.90;;;9.23;;
20495;SDS011;10406;54.132;17.968;2022-08-19T18:52:52;23.33;;;8.88;;
20495;SDS011;10406;54.132;17.968;2022-08-19T18:58:13;23.20;;;8.77;;
20495;SDS011;10406;54.132;17.968;2022-08-19T19:03:36;22.73;;;8.98;;
20495;SDS011;10406;54.132;17.968;2022-08-19T19:09:01;21.95;;;10.50;;
20495;SDS011;10406;54.132;17.968;2022-08-19T19:14:23;21.85;;;10.52;;
20495;SDS011;10406;54.132;17.968;2022-08-19T19:19:50;24.85;;;10.20;;
20495;SDS011;10406;54.132;17.968;2022-08-19T19:25:14;19.92;;;10.02;;
20495;SDS011;10406;54.132;17.968;2022-08-19T19:30:38;22.75;;;10.52;;
20495;SDS011;10406;54.132;17.968;2022-08-19T19:36:00;23.05;;;11.07;;
20495;SDS011;10406;54.132;17.968;2022-08-19T19:41:22;23.30;;;10.63;;
20495;SDS011;10406;54.132;17.968;2022-08-19T19:46:50;21.33;;;10.15;;
20495;SDS011;10406;54.132;17.968;2022-08-19T19:58:40;26.48;;;11.88;;
20495;SDS011;10406;54.132;17.968;2022-08-19T20:04:01;24.05;;;11.35;;
20495;SDS011;10406;54.132;17.968;2022-08-19T20:09:22;21.27;;;10.57;;
20495;SDS011;10406;54.132;17.968;2022-08-19T20:14:44;18.60;;;9.63;;
20495;SDS011;10406;54.132;17.968;2022-08-19T20:20:05;22.58;;;10.00;;
20495;SDS011;10406;54.132;17.968;2022-08-19T20:25:27;18.80;;;9.55;;
20495;SDS011;10406;54.132;17.968;2022-08-19T20:30:51;17.30;;;9.10;;
20495;SDS011;10406;54.132;17.968;2022-08-19T20:36:13;23.30;;;10.43;;
20495;SDS011;10406;54.132;17.968;2022-08-19T20:41:36;22.60;;;9.65;;
20495;SDS011;10406;54.132;17.968;2022-08-19T20:46:59;22.48;;;10.13;;
20495;SDS011;10406;54.132;17.968;2022-08-19T20:52:20;19.00;;;9.43;;
20495;SDS011;10406;54.132;17.968;2022-08-19T20:57:41;24.17;;;10.63;;
20495;SDS011;10406;54.132;17.968;2022-08-19T21:03:04;21.40;;;10.80;;
20495;SDS011;10406;54.132;17.968;2022-08-19T21:08:25;20.95;;;10.10;;
20495;SDS011;10406;54.132;17.968;2022-08-19T21:13:47;20.00;;;11.05;;
20495;SDS011;10406;54.132;17.968;2022-08-19T21:19:09;22.52;;;11.00;;
20495;SDS011;10406;54.132;17.968;2022-08-19T21:24:31;20.95;;;10.98;;
20495;SDS011;10406;54.132;17.968;2022-08-19T21:29:52;21.50;;;10.75;;
20495;SDS011;10406;54.132;17.968;2022-08-19T21:35:14;26.48;;;10.85;;
20495;SDS011;10406;54.132;17.968;2022-08-19T21:40:35;20.83;;;11.13;;
20495;SDS011;10406;54.132;17.968;2022-08-19T21:45:56;23.48;;;11.90;;
20495;SDS011;10406;54.132;17.968;2022-08-19T21:51:18;25.63;;;12.05;;
20495;SDS011;10406;54.132;17.968;2022-08-19T21:56:40;29.63;;;13.10;;
20495;SDS011;10406;54.132;17.968;2022-08-19T22:02:00;28.20;;;12.95;;
20495;SDS011;10406;54.132;17.968;2022-08-19T22:07:23;29.02;;;13.60;;
20495;SDS011;10406;54.132;17.968;2022-08-19T22:12:45;29.88;;;12.88;;
20495;SDS011;10406;54.132;17.968;2022-08-19T22:18:07;26.30;;;12.23;;
20495;SDS011;10406;54.132;17.968;2022-08-19T22:23:30;26.67;;;12.25;;
20495;SDS011;10406;54.132;17.968;2022-08-19T22:28:51;24.85;;;11.88;;
20495;SDS011;10406;54.132;17.968;2022-08-19T22:34:11;25.33;;;13.00;;
20495;SDS011;10406;54.132;17.968;2022-08-19T22:39:34;30.73;;;13.13;;
20495;SDS011;10406;54.132;17.968;2022-08-19T22:44:55;26.25;;;14.05;;
20495;SDS011;10406;54.132;17.968;2022-08-19T22:50:19;25.10;;;13.60;;
20495;SDS011;10406;54.132;17.968;2022-08-19T22:55:42;27.58;;;13.93;;
20495;SDS011;10406;54.132;17.968;2022-08-19T23:01:03;30.08;;;14.23;;
20495;SDS011;10406;54.132;17.968;2022-08-19T23:06:25;29.55;;;15.90;;
20495;SDS011;10406;54.132;17.968;2022-08-19T23:11:48;31.63;;;15.05;;
20495;SDS011;10406;54.132;17.968;2022-08-19T23:17:09;27.85;;;15.05;;
20495;SDS011;10406;54.132;17.968;2022-08-19T23:22:42;26.88;;;15.38;;
20495;SDS011;10406;54.132;17.968;2022-08-19T23:28:06;28.15;;;16.83;;
20495;SDS011;10406;54.132;17.968;2022-08-19T23:33:45;29.33;;;16.27;;
20495;SDS011;10406;54.132;17.968;2022-08-19T23:39:07;29.48;;;16.08;;
20495;SDS011;10406;54.132;17.968;2022-08-19T23:44:29;31.23;;;17.33;;
20495;SDS011;10406;54.132;17.968;2022-08-19T23:49:50;30.30;;;16.83;;
20495;SDS011;10406;54.132;17.968;2022-08-19T23:55:11;30.85;;;18.05;;
